sensor_id;sensor_type;location;lat;lon;timestamp;P1;durP1;ratioP1;P2;durP2;ratioP2
50745;SDS011;36711;51.972;21.204;2023-08-24T06:11:57;6.60;;;2.30;;
50745;SDS011;36711;51.972;21.204;2023-08-24T06:14:35;7.00;;;2.00;;
50745;SDS011;36711;51.972;21.204;2023-08-24T06:17:03;3.70;;;2.30;;
50745;SDS011;36711;51.972;21.204;2023-08-24T06:19:38;5.50;;;1.90;;
50745;SDS011;36711;51.972;21.204;2023-08-24T06:22:11;3.40;;;2.20;;
50745;SDS011;36711;51.972;21.204;2023-08-24T06:24:42;3.90;;;2.00;;
50745;SDS011;36711;51.972;21.204;2023-08-24T06:27:31;4.60;;;2.10;;
50745;SDS011;36711;51.972;21.204;2023-08-24T06:30:03;2.30;;;1.90;;
50745;SDS011;36711;51.972;21.204;2023-08-24T06:32:49;5.20;;;2.20;;
50745;SDS011;36711;51.972;21.204;2023-08-24T06:35:17;3.40;;;2.10;;
50745;SDS011;36711;51.972;21.204;2023-08-24T06:37:49;6.20;;;2.10;;
50745;SDS011;36711;51.972;21.204;2023-08-24T06:40:42;4.10;;;2.00;;
50745;SDS011;36711;51.972;21.204;2023-08-24T06:43:14;5.80;;;2.10;;
50745;SDS011;36711;51.972;21.204;2023-08-24T06:46:00;7.10;;;1.80;;
50745;SDS011;36711;51.972;21.204;2023-08-24T06:48:41;3.90;;;2.10;;
50745;SDS011;36711;51.972;21.204;2023-08-24T06:51:11;4.80;;;1.60;;
50745;SDS011;36711;51.972;21.204;2023-08-24T06:53:58;4.50;;;1.90;;
50745;SDS011;36711;51.972;21.204;2023-08-24T06:56:24;2.80;;;1.80;;
50745;SDS011;36711;51.972;21.204;2023-08-24T06:59:04;2.00;;;1.80;;
50745;SDS011;36711;51.972;21.204;2023-08-24T07:01:45;4.30;;;2.00;;
50745;SDS011;36711;51.972;21.204;2023-08-24T07:04:18;2.00;;;1.60;;
50745;SDS011;36711;51.972;21.204;2023-08-24T07:07:14;6.60;;;1.80;;
50745;SDS011;36711;51.972;21.204;2023-08-24T07:09:48;2.70;;;2.00;;
50745;SDS011;36711;51.972;21.204;2023-08-24T07:12:28;2.90;;;1.60;;
50745;SDS011;36711;51.972;21.204;2023-08-24T07:15:01;3.80;;;1.90;;
50745;SDS011;36711;51.972;21.204;2023-08-24T07:17:47;6.40;;;1.90;;
50745;SDS011;36711;51.972;21.204;2023-08-24T07:20:22;2.40;;;1.60;;
50745;SDS011;36711;51.972;21.204;2023-08-24T07:23:10;4.00;;;1.80;;
50745;SDS011;36711;51.972;21.204;2023-08-24T07:25:45;3.30;;;1.80;;
50745;SDS011;36711;51.972;21.204;2023-08-24T07:28:32;5.50;;;1.80;;
50745;SDS011;36711;51.972;21.204;2023-08-24T07:30:57;7.30;;;2.10;;
50745;SDS011;36711;51.972;21.204;2023-08-24T07:33:37;5.50;;;2.00;;
50745;SDS011;36711;51.972;21.204;2023-08-24T07:36:22;4.30;;;1.90;;
50745;SDS011;36711;51.972;21.204;2023-08-24T07:38:51;2.80;;;1.70;;
50745;SDS011;36711;51.972;21.204;2023-08-24T07:41:27;4.50;;;1.70;;
50745;SDS011;36711;51.972;21.204;2023-08-24T07:43:58;3.70;;;1.70;;
50745;SDS011;36711;51.972;21.204;2023-08-24T07:47:00;3.80;;;1.70;;
50745;SDS011;36711;51.972;21.204;2023-08-24T07:50:28;6.00;;;1.80;;
50745;SDS011;36711;51.972;21.204;2023-08-24T07:53:00;3.10;;;1.80;;
50745;SDS011;36711;51.972;21.204;2023-08-24T07:55:30;4.60;;;1.60;;
50745;SDS011;36711;51.972;21.204;2023-08-24T07:58:00;5.80;;;1.90;;
50745;SDS011;36711;51.972;21.204;2023-08-24T08:00:29;6.20;;;1.50;;
50745;SDS011;36711;51.972;21.204;2023-08-24T08:03:02;8.60;;;1.60;;
50745;SDS011;36711;51.972;21.204;2023-08-24T08:05:34;3.00;;;1.40;;
50745;SDS011;36711;51.972;21.204;2023-08-24T08:08:06;6.40;;;1.90;;
50745;SDS011;36711;51.972;21.204;2023-08-24T08:10:40;3.70;;;1.50;;
50745;SDS011;36711;51.972;21.204;2023-08-24T08:13:22;3.80;;;1.50;;
50745;SDS011;36711;51.972;21.204;2023-08-24T08:16:11;3.90;;;1.40;;
50745;SDS011;36711;51.972;21.204;2023-08-24T08:18:49;2.90;;;1.30;;
50745;SDS011;36711;51.972;21.204;2023-08-24T08:21:26;4.90;;;1.70;;
50745;SDS011;36711;51.972;21.204;2023-08-24T08:24:11;3.50;;;1.40;;
50745;SDS011;36711;51.972;21.204;2023-08-24T08:26:58;3.40;;;1.50;;
50745;SDS011;36711;51.972;21.204;2023-08-24T08:29:32;3.00;;;1.70;;
50745;SDS011;36711;51.972;21.204;2023-08-24T08:32:08;4.60;;;1.80;;
50745;SDS011;36711;51.972;21.204;2023-08-24T08:34:39;5.20;;;1.50;;
50745;SDS011;36711;51.972;21.204;2023-08-24T08:38:00;3.20;;;1.80;;
50745;SDS011;36711;51.972;21.204;2023-08-24T08:40:31;3.10;;;1.60;;
50745;SDS011;36711;51.972;21.204;2023-08-24T08:43:03;2.50;;;1.60;;
50745;SDS011;36711;51.972;21.204;2023-08-24T08:45:51;3.30;;;1.80;;
50745;SDS011;36711;51.972;21.204;2023-08-24T08:48:25;4.30;;;1.70;;
50745;SDS011;36711;51.972;21.204;2023-08-24T08:51:49;5.70;;;1.90;;
50745;SDS011;36711;51.972;21.204;2023-08-24T08:54:22;6.50;;;1.70;;
50745;SDS011;36711;51.972;21.204;2023-08-24T08:56:56;5.80;;;1.70;;
50745;SDS011;36711;51.972;21.204;2023-08-24T08:59:49;7.30;;;1.70;;
50745;SDS011;36711;51.972;21.204;2023-08-24T09:02:27;2.10;;;1.50;;
50745;SDS011;36711;51.972;21.204;2023-08-24T09:05:25;6.00;;;1.50;;
50745;SDS011;36711;51.972;21.204;2023-08-24T09:07:57;3.00;;;1.40;;
50745;SDS011;36711;51.972;21.204;2023-08-24T09:11:07;3.80;;;1.30;;
50745;SDS011;36711;51.972;21.204;2023-08-24T09:14:06;2.20;;;1.30;;
50745;SDS011;36711;51.972;21.204;2023-08-24T09:16:38;2.90;;;1.20;;
50745;SDS011;36711;51.972;21.204;2023-08-24T09:19:10;4.60;;;1.40;;
50745;SDS011;36711;51.972;21.204;2023-08-24T09:21:43;4.30;;;1.20;;
50745;SDS011;36711;51.972;21.204;2023-08-24T09:24:14;3.10;;;1.10;;
50745;SDS011;36711;51.972;21.204;2023-08-24T09:26:49;3.70;;;1.30;;
50745;SDS011;36711;51.972;21.204;2023-08-24T09:29:24;4.70;;;1.10;;
50745;SDS011;36711;51.972;21.204;2023-08-24T09:31:55;3.80;;;0.90;;
50745;SDS011;36711;51.972;21.204;2023-08-24T09:34:46;3.20;;;0.90;;
50745;SDS011;36711;51.972;21.204;2023-08-24T09:37:15;2.80;;;0.90;;
50745;SDS011;36711;51.972;21.204;2023-08-24T09:39:55;2.30;;;0.90;;
50745;SDS011;36711;51.972;21.204;2023-08-24T09:42:36;2.00;;;0.90;;
50745;SDS011;36711;51.972;21.204;2023-08-24T09:45:06;3.10;;;0.80;;
50745;SDS011;36711;51.972;21.204;2023-08-24T09:47:46;2.30;;;0.70;;
50745;SDS011;36711;51.972;21.204;2023-08-24T09:50:18;3.50;;;0.80;;
50745;SDS011;36711;51.972;21.204;2023-08-24T09:53:03;1.70;;;0.80;;
50745;SDS011;36711;51.972;21.204;2023-08-24T09:55:46;2.40;;;1.00;;
50745;SDS011;36711;51.972;21.204;2023-08-24T09:58:26;2.50;;;0.80;;
50745;SDS011;36711;51.972;21.204;2023-08-24T10:00:56;3.10;;;0.80;;
50745;SDS011;36711;51.972;21.204;2023-08-24T10:03:38;1.90;;;0.90;;
50745;SDS011;36711;51.972;21.204;2023-08-24T10:06:16;2.00;;;0.90;;
50745;SDS011;36711;51.972;21.204;2023-08-24T10:08:57;3.00;;;1.00;;
50745;SDS011;36711;51.972;21.204;2023-08-24T10:11:39;2.00;;;0.90;;
50745;SDS011;36711;51.972;21.204;2023-08-24T10:17:19;2.30;;;0.90;;
50745;SDS011;36711;51.972;21.204;2023-08-24T10:19:54;2.10;;;0.80;;
50745;SDS011;36711;51.972;21.204;2023-08-24T10:22:27;2.90;;;0.70;;
50745;SDS011;36711;51.972;21.204;2023-08-24T10:25:11;2.50;;;1.00;;
50745;SDS011;36711;51.972;21.204;2023-08-24T10:27:48;1.30;;;0.60;;
50745;SDS011;36711;51.972;21.204;2023-08-24T10:30:46;4.20;;;0.70;;
50745;SDS011;36711;51.972;21.204;2023-08-24T10:33:17;1.60;;;0.90;;
50745;SDS011;36711;51.972;21.204;2023-08-24T10:35:49;2.80;;;0.80;;
50745;SDS011;36711;51.972;21.204;2023-08-24T10:40:54;1.00;;;0.90;;
50745;SDS011;36711;51.972;21.204;2023-08-24T10:43:40;3.00;;;1.00;;
50745;SDS011;36711;51.972;21.204;2023-08-24T10:46:22;5.40;;;1.20;;
50745;SDS011;36711;51.972;21.204;2023-08-24T10:48:56;3.20;;;1.30;;
50745;SDS011;36711;51.972;21.204;2023-08-24T10:51:26;3.50;;;1.00;;
50745;SDS011;36711;51.972;21.204;2023-08-24T10:54:01;2.70;;;1.10;;
50745;SDS011;36711;51.972;21.204;2023-08-24T10:56:36;3.70;;;0.80;;
50745;SDS011;36711;51.972;21.204;2023-08-24T10:59:09;4.00;;;1.30;;
50745;SDS011;36711;51.972;21.204;2023-08-24T11:02:04;1.90;;;0.90;;
50745;SDS011;36711;51.972;21.204;2023-08-24T11:04:40;2.80;;;1.00;;
50745;SDS011;36711;51.972;21.204;2023-08-24T11:07:15;2.60;;;1.00;;
50745;SDS011;36711;51.972;21.204;2023-08-24T11:09:47;2.50;;;0.90;;
50745;SDS011;36711;51.972;21.204;2023-08-24T11:12:18;4.80;;;1.00;;
50745;SDS011;36711;51.972;21.204;2023-08-24T11:14:53;1.60;;;0.90;;
50745;SDS011;36711;51.972;21.204;2023-08-24T11:17:30;4.50;;;0.80;;
50745;SDS011;36711;51.972;21.204;2023-08-24T11:20:13;1.70;;;0.90;;
50745;SDS011;36711;51.972;21.204;2023-08-24T11:22:45;1.50;;;1.10;;
50745;SDS011;36711;51.972;21.204;2023-08-24T11:25:20;2.50;;;0.80;;
50745;SDS011;36711;51.972;21.204;2023-08-24T11:27:59;2.80;;;1.20;;
50745;SDS011;36711;51.972;21.204;2023-08-24T11:30:33;2.10;;;0.90;;
50745;SDS011;36711;51.972;21.204;2023-08-24T11:33:06;4.00;;;0.90;;
50745;SDS011;36711;51.972;21.204;2023-08-24T11:35:49;1.80;;;1.00;;
50745;SDS011;36711;51.972;21.204;2023-08-24T11:38:36;1.00;;;0.90;;
50745;SDS011;36711;51.972;21.204;2023-08-24T11:41:34;2.50;;;0.80;;
50745;SDS011;36711;51.972;21.204;2023-08-24T11:44:45;4.80;;;0.90;;
50745;SDS011;36711;51.972;21.204;2023-08-24T11:47:21;2.70;;;0.70;;
50745;SDS011;36711;51.972;21.204;2023-08-24T11:49:57;2.50;;;0.80;;
50745;SDS011;36711;51.972;21.204;2023-08-24T11:52:32;2.80;;;0.80;;
50745;SDS011;36711;51.972;21.204;2023-08-24T11:55:04;1.70;;;1.00;;
50745;SDS011;36711;51.972;21.204;2023-08-24T11:57:41;1.30;;;1.00;;
50745;SDS011;36711;51.972;21.204;2023-08-24T12:00:40;1.20;;;0.80;;
50745;SDS011;36711;51.972;21.204;2023-08-24T12:03:19;4.30;;;0.90;;
50745;SDS011;36711;51.972;21.204;2023-08-24T12:06:15;1.80;;;0.80;;
50745;SDS011;36711;51.972;21.204;2023-08-24T12:08:58;2.10;;;0.90;;
50745;SDS011;36711;51.972;21.204;2023-08-24T12:11:41;3.30;;;0.90;;
50745;SDS011;36711;51.972;21.204;2023-08-24T12:14:16;2.70;;;1.00;;
50745;SDS011;36711;51.972;21.204;2023-08-24T12:17:06;6.20;;;1.80;;
50745;SDS011;36711;51.972;21.204;2023-08-24T12:19:56;2.20;;;0.90;;
50745;SDS011;36711;51.972;21.204;2023-08-24T12:22:39;4.70;;;0.90;;
50745;SDS011;36711;51.972;21.204;2023-08-24T12:25:13;2.30;;;0.90;;
50745;SDS011;36711;51.972;21.204;2023-08-24T12:28:10;1.50;;;0.80;;
50745;SDS011;36711;51.972;21.204;2023-08-24T12:30:46;2.10;;;0.90;;
50745;SDS011;36711;51.972;21.204;2023-08-24T12:33:25;3.80;;;1.00;;
50745;SDS011;36711;51.972;21.204;2023-08-24T12:38:31;1.50;;;0.80;;
50745;SDS011;36711;51.972;21.204;2023-08-24T12:41:16;1.40;;;0.80;;
50745;SDS011;36711;51.972;21.204;2023-08-24T12:43:44;1.70;;;0.70;;
50745;SDS011;36711;51.972;21.204;2023-08-24T12:46:20;2.40;;;0.90;;
50745;SDS011;36711;51.972;21.204;2023-08-24T12:48:53;1.70;;;0.90;;
50745;SDS011;36711;51.972;21.204;2023-08-24T12:51:28;2.40;;;0.80;;
50745;SDS011;36711;51.972;21.204;2023-08-24T12:54:05;2.60;;;1.00;;
50745;SDS011;36711;51.972;21.204;2023-08-24T12:57:07;2.00;;;0.90;;
50745;SDS011;36711;51.972;21.204;2023-08-24T12:59:39;2.00;;;1.00;;
50745;SDS011;36711;51.972;21.204;2023-08-24T13:02:24;1.60;;;1.00;;
50745;SDS011;36711;51.972;21.204;2023-08-24T13:05:08;4.50;;;1.10;;
50745;SDS011;36711;51.972;21.204;2023-08-24T13:07:42;2.30;;;1.10;;
50745;SDS011;36711;51.972;21.204;2023-08-24T13:10:16;1.70;;;1.00;;
50745;SDS011;36711;51.972;21.204;2023-08-24T13:12:59;4.20;;;1.20;;
50745;SDS011;36711;51.972;21.204;2023-08-24T13:15:55;1.90;;;1.00;;
50745;SDS011;36711;51.972;21.204;2023-08-24T13:18:35;5.40;;;1.20;;
50745;SDS011;36711;51.972;21.204;2023-08-24T13:21:16;4.00;;;1.30;;
50745;SDS011;36711;51.972;21.204;2023-08-24T13:23:49;3.10;;;1.20;;
50745;SDS011;36711;51.972;21.204;2023-08-24T13:26:41;2.50;;;1.10;;
50745;SDS011;36711;51.972;21.204;2023-08-24T13:29:18;5.10;;;1.10;;
50745;SDS011;36711;51.972;21.204;2023-08-24T13:31:52;2.60;;;1.00;;
50745;SDS011;36711;51.972;21.204;2023-08-24T13:34:23;3.20;;;1.10;;
50745;SDS011;36711;51.972;21.204;2023-08-24T13:37:14;4.40;;;1.00;;
50745;SDS011;36711;51.972;21.204;2023-08-24T13:40:01;1.70;;;1.00;;
50745;SDS011;36711;51.972;21.204;2023-08-24T13:42:34;2.70;;;1.50;;
50745;SDS011;36711;51.972;21.204;2023-08-24T13:45:09;1.70;;;1.10;;
50745;SDS011;36711;51.972;21.204;2023-08-24T13:47:42;3.40;;;1.20;;
50745;SDS011;36711;51.972;21.204;2023-08-24T13:50:21;1.70;;;1.10;;
50745;SDS011;36711;51.972;21.204;2023-08-24T13:53:09;1.80;;;1.10;;
50745;SDS011;36711;51.972;21.204;2023-08-24T13:57:39;1.40;;;1.30;;
50745;SDS011;36711;51.972;21.204;2023-08-24T14:00:25;5.00;;;2.20;;
50745;SDS011;36711;51.972;21.204;2023-08-24T14:03:09;3.60;;;1.30;;
50745;SDS011;36711;51.972;21.204;2023-08-24T14:05:46;3.80;;;1.50;;
50745;SDS011;36711;51.972;21.204;2023-08-24T14:08:22;2.20;;;1.10;;
50745;SDS011;36711;51.972;21.204;2023-08-24T14:10:52;2.40;;;1.20;;
50745;SDS011;36711;51.972;21.204;2023-08-24T14:13:34;2.60;;;1.20;;
50745;SDS011;36711;51.972;21.204;2023-08-24T14:16:19;4.30;;;1.50;;
50745;SDS011;36711;51.972;21.204;2023-08-24T14:19:05;3.50;;;1.10;;
50745;SDS011;36711;51.972;21.204;2023-08-24T14:21:36;4.00;;;1.30;;
50745;SDS011;36711;51.972;21.204;2023-08-24T14:24:15;1.30;;;1.10;;
50745;SDS011;36711;51.972;21.204;2023-08-24T14:27:11;4.80;;;1.30;;
50745;SDS011;36711;51.972;21.204;2023-08-24T14:29:40;1.40;;;1.00;;
50745;SDS011;36711;51.972;21.204;2023-08-24T14:32:18;3.30;;;1.20;;
50745;SDS011;36711;51.972;21.204;2023-08-24T14:34:51;3.00;;;1.30;;
50745;SDS011;36711;51.972;21.204;2023-08-24T14:37:34;1.60;;;1.20;;
50745;SDS011;36711;51.972;21.204;2023-08-24T14:40:27;2.40;;;1.20;;
50745;SDS011;36711;51.972;21.204;2023-08-24T14:43:18;1.90;;;1.30;;
50745;SDS011;36711;51.972;21.204;2023-08-24T14:45:52;4.20;;;1.10;;
50745;SDS011;36711;51.972;21.204;2023-08-24T14:48:24;1.50;;;1.20;;
50745;SDS011;36711;51.972;21.204;2023-08-24T14:51:02;2.50;;;1.30;;
50745;SDS011;36711;51.972;21.204;2023-08-24T14:53:41;2.70;;;1.10;;
50745;SDS011;36711;51.972;21.204;2023-08-24T14:56:17;2.30;;;1.40;;
50745;SDS011;36711;51.972;21.204;2023-08-24T14:58:53;3.10;;;1.30;;
50745;SDS011;36711;51.972;21.204;2023-08-24T15:01:41;1.40;;;1.10;;
50745;SDS011;36711;51.972;21.204;2023-08-24T15:04:14;1.30;;;1.20;;
50745;SDS011;36711;51.972;21.204;2023-08-24T15:06:43;2.60;;;1.30;;
50745;SDS011;36711;51.972;21.204;2023-08-24T15:09:30;2.70;;;1.20;;
50745;SDS011;36711;51.972;21.204;2023-08-24T15:12:02;3.40;;;1.60;;
50745;SDS011;36711;51.972;21.204;2023-08-24T15:14:45;2.50;;;1.40;;
50745;SDS011;36711;51.972;21.204;2023-08-24T15:17:29;1.70;;;1.20;;
50745;SDS011;36711;51.972;21.204;2023-08-24T15:19:58;4.20;;;1.10;;
50745;SDS011;36711;51.972;21.204;2023-08-24T15:22:34;3.00;;;1.20;;
50745;SDS011;36711;51.972;21.204;2023-08-24T15:25:07;2.70;;;1.60;;
50745;SDS011;36711;51.972;21.204;2023-08-24T15:27:38;4.40;;;1.30;;
50745;SDS011;36711;51.972;21.204;2023-08-24T15:30:13;2.50;;;1.50;;
50745;SDS011;36711;51.972;21.204;2023-08-24T15:32:46;2.10;;;1.20;;
50745;SDS011;36711;51.972;21.204;2023-08-24T15:35:57;2.10;;;1.40;;
50745;SDS011;36711;51.972;21.204;2023-08-24T15:38:28;4.30;;;1.60;;
50745;SDS011;36711;51.972;21.204;2023-08-24T15:40:58;2.00;;;1.10;;
50745;SDS011;36711;51.972;21.204;2023-08-24T15:43:31;5.90;;;1.50;;
50745;SDS011;36711;51.972;21.204;2023-08-24T15:46:02;3.80;;;1.10;;
50745;SDS011;36711;51.972;21.204;2023-08-24T15:48:37;3.00;;;1.80;;
50745;SDS011;36711;51.972;21.204;2023-08-24T15:51:22;5.20;;;1.80;;
50745;SDS011;36711;51.972;21.204;2023-08-24T15:54:02;3.20;;;1.70;;
50745;SDS011;36711;51.972;21.204;2023-08-24T15:56:52;2.20;;;1.30;;
50745;SDS011;36711;51.972;21.204;2023-08-24T15:59:29;2.40;;;1.40;;
50745;SDS011;36711;51.972;21.204;2023-08-24T16:02:15;4.90;;;1.50;;
50745;SDS011;36711;51.972;21.204;2023-08-24T16:04:46;4.70;;;1.40;;
50745;SDS011;36711;51.972;21.204;2023-08-24T16:07:41;3.10;;;1.40;;
50745;SDS011;36711;51.972;21.204;2023-08-24T16:10:12;1.90;;;1.30;;
50745;SDS011;36711;51.972;21.204;2023-08-24T16:12:41;2.00;;;1.40;;
50745;SDS011;36711;51.972;21.204;2023-08-24T16:15:06;2.90;;;1.30;;
50745;SDS011;36711;51.972;21.204;2023-08-24T16:17:38;2.20;;;1.40;;
50745;SDS011;36711;51.972;21.204;2023-08-24T16:20:14;3.00;;;1.30;;
50745;SDS011;36711;51.972;21.204;2023-08-24T16:22:43;2.50;;;1.40;;
50745;SDS011;36711;51.972;21.204;2023-08-24T16:25:15;3.70;;;1.40;;
50745;SDS011;36711;51.972;21.204;2023-08-24T16:27:48;2.40;;;1.40;;
50745;SDS011;36711;51.972;21.204;2023-08-24T16:30:23;2.10;;;1.70;;
50745;SDS011;36711;51.972;21.204;2023-08-24T16:32:54;3.80;;;1.70;;
50745;SDS011;36711;51.972;21.204;2023-08-24T16:35:24;3.10;;;2.00;;
50745;SDS011;36711;51.972;21.204;2023-08-24T16:40:34;3.70;;;1.90;;
50745;SDS011;36711;51.972;21.204;2023-08-24T16:43:08;4.30;;;2.00;;
50745;SDS011;36711;51.972;21.204;2023-08-24T16:45:57;2.50;;;1.90;;
50745;SDS011;36711;51.972;21.204;2023-08-24T16:48:30;4.50;;;1.80;;
50745;SDS011;36711;51.972;21.204;2023-08-24T16:51:08;3.40;;;1.80;;
50745;SDS011;36711;51.972;21.204;2023-08-24T16:53:43;4.20;;;1.80;;
50745;SDS011;36711;51.972;21.204;2023-08-24T16:56:32;4.10;;;1.90;;
50745;SDS011;36711;51.972;21.204;2023-08-24T16:59:43;2.30;;;1.70;;
50745;SDS011;36711;51.972;21.204;2023-08-24T17:02:13;3.80;;;2.10;;
50745;SDS011;36711;51.972;21.204;2023-08-24T17:04:48;10.20;;;2.00;;
50745;SDS011;36711;51.972;21.204;2023-08-24T17:07:22;7.40;;;2.10;;
50745;SDS011;36711;51.972;21.204;2023-08-24T17:09:59;3.60;;;1.90;;
50745;SDS011;36711;51.972;21.204;2023-08-24T17:12:28;5.60;;;2.00;;
50745;SDS011;36711;51.972;21.204;2023-08-24T17:15:10;8.90;;;2.10;;
50745;SDS011;36711;51.972;21.204;2023-08-24T17:17:41;5.70;;;2.00;;
50745;SDS011;36711;51.972;21.204;2023-08-24T17:20:23;3.90;;;2.00;;
50745;SDS011;36711;51.972;21.204;2023-08-24T17:23:23;7.70;;;2.00;;
50745;SDS011;36711;51.972;21.204;2023-08-24T17:36:34;30.30;;;3.10;;
50745;SDS011;36711;51.972;21.204;2023-08-24T17:39:19;24.90;;;3.00;;
50745;SDS011;36711;51.972;21.204;2023-08-24T17:41:48;18.40;;;2.80;;
50745;SDS011;36711;51.972;21.204;2023-08-24T17:44:25;13.40;;;2.20;;
50745;SDS011;36711;51.972;21.204;2023-08-24T17:47:18;8.10;;;2.30;;
50745;SDS011;36711;51.972;21.204;2023-08-24T17:50:03;10.10;;;2.50;;
50745;SDS011;36711;51.972;21.204;2023-08-24T17:52:51;4.90;;;2.10;;
50745;SDS011;36711;51.972;21.204;2023-08-24T17:55:27;3.70;;;2.00;;
50745;SDS011;36711;51.972;21.204;2023-08-24T17:57:58;6.30;;;2.20;;
50745;SDS011;36711;51.972;21.204;2023-08-24T18:00:39;5.60;;;2.20;;
50745;SDS011;36711;51.972;21.204;2023-08-24T18:03:28;4.20;;;2.70;;
50745;SDS011;36711;51.972;21.204;2023-08-24T18:06:05;8.40;;;2.20;;
50745;SDS011;36711;51.972;21.204;2023-08-24T18:08:59;7.90;;;2.70;;
50745;SDS011;36711;51.972;21.204;2023-08-24T18:11:40;9.60;;;2.50;;
50745;SDS011;36711;51.972;21.204;2023-08-24T18:14:12;5.30;;;2.80;;
50745;SDS011;36711;51.972;21.204;2023-08-24T18:17:03;5.80;;;3.60;;
50745;SDS011;36711;51.972;21.204;2023-08-24T18:19:41;5.50;;;3.90;;
50745;SDS011;36711;51.972;21.204;2023-08-24T18:22:28;7.00;;;3.10;;
50745;SDS011;36711;51.972;21.204;2023-08-24T18:27:59;3.60;;;2.90;;
50745;SDS011;36711;51.972;21.204;2023-08-24T18:31:00;2.60;;;2.40;;
50745;SDS011;36711;51.972;21.204;2023-08-24T18:33:28;9.60;;;3.10;;
50745;SDS011;36711;51.972;21.204;2023-08-24T18:36:06;6.70;;;3.00;;
50745;SDS011;36711;51.972;21.204;2023-08-24T18:38:40;5.60;;;2.70;;
50745;SDS011;36711;51.972;21.204;2023-08-24T18:41:16;9.80;;;2.60;;
50745;SDS011;36711;51.972;21.204;2023-08-24T18:44:01;3.70;;;2.70;;
50745;SDS011;36711;51.972;21.204;2023-08-24T18:46:36;4.30;;;2.60;;
50745;SDS011;36711;51.972;21.204;2023-08-24T18:49:16;3.90;;;2.50;;
50745;SDS011;36711;51.972;21.204;2023-08-24T18:51:56;8.60;;;2.70;;
50745;SDS011;36711;51.972;21.204;2023-08-24T18:54:27;4.10;;;2.40;;
50745;SDS011;36711;51.972;21.204;2023-08-24T18:57:00;2.80;;;2.60;;
50745;SDS011;36711;51.972;21.204;2023-08-24T18:59:36;3.70;;;2.80;;
50745;SDS011;36711;51.972;21.204;2023-08-24T19:02:20;2.70;;;2.40;;
50745;SDS011;36711;51.972;21.204;2023-08-24T19:04:53;3.50;;;2.30;;
50745;SDS011;36711;51.972;21.204;2023-08-24T19:07:37;13.30;;;2.80;;
50745;SDS011;36711;51.972;21.204;2023-08-24T19:10:06;4.20;;;2.70;;
50745;SDS011;36711;51.972;21.204;2023-08-24T19:12:41;6.30;;;2.50;;
50745;SDS011;36711;51.972;21.204;2023-08-24T19:15:16;5.70;;;2.80;;
50745;SDS011;36711;51.972;21.204;2023-08-24T19:17:56;5.30;;;2.50;;
50745;SDS011;36711;51.972;21.204;2023-08-24T19:20:54;4.50;;;2.70;;
50745;SDS011;36711;51.972;21.204;2023-08-24T19:23:32;8.00;;;2.80;;
50745;SDS011;36711;51.972;21.204;2023-08-24T19:26:13;7.30;;;4.30;;
50745;SDS011;36711;51.972;21.204;2023-08-24T19:28:50;7.10;;;3.80;;
50745;SDS011;36711;51.972;21.204;2023-08-24T19:31:26;9.40;;;3.40;;
50745;SDS011;36711;51.972;21.204;2023-08-24T19:34:14;6.40;;;2.90;;
50745;SDS011;36711;51.972;21.204;2023-08-24T19:36:49;6.10;;;2.60;;
50745;SDS011;36711;51.972;21.204;2023-08-24T19:39:33;8.90;;;3.00;;
50745;SDS011;36711;51.972;21.204;2023-08-24T19:42:11;4.70;;;3.10;;
50745;SDS011;36711;51.972;21.204;2023-08-24T19:44:44;5.40;;;3.00;;
50745;SDS011;36711;51.972;21.204;2023-08-24T19:47:26;6.50;;;2.90;;
50745;SDS011;36711;51.972;21.204;2023-08-24T19:50:03;3.60;;;2.80;;
50745;SDS011;36711;51.972;21.204;2023-08-24T19:52:32;17.90;;;3.40;;
50745;SDS011;36711;51.972;21.204;2023-08-24T19:55:09;4.20;;;3.40;;
50745;SDS011;36711;51.972;21.204;2023-08-24T19:57:38;4.60;;;3.60;;
50745;SDS011;36711;51.972;21.204;2023-08-24T20:00:55;5.00;;;3.40;;
50745;SDS011;36711;51.972;21.204;2023-08-24T20:03:37;3.20;;;2.80;;
50745;SDS011;36711;51.972;21.204;2023-08-24T20:06:17;5.50;;;3.40;;
50745;SDS011;36711;51.972;21.204;2023-08-24T20:08:52;7.10;;;3.20;;
50745;SDS011;36711;51.972;21.204;2023-08-24T20:11:28;7.10;;;3.30;;
50745;SDS011;36711;51.972;21.204;2023-08-24T20:14:04;7.20;;;3.90;;
50745;SDS011;36711;51.972;21.204;2023-08-24T20:17:16;6.50;;;3.90;;
50745;SDS011;36711;51.972;21.204;2023-08-24T20:19:46;7.10;;;4.20;;
50745;SDS011;36711;51.972;21.204;2023-08-24T20:22:20;6.50;;;3.90;;
50745;SDS011;36711;51.972;21.204;2023-08-24T20:24:55;6.10;;;4.00;;
50745;SDS011;36711;51.972;21.204;2023-08-24T20:27:46;7.70;;;3.80;;
50745;SDS011;36711;51.972;21.204;2023-08-24T20:30:40;5.90;;;3.40;;
50745;SDS011;36711;51.972;21.204;2023-08-24T20:33:13;6.90;;;3.70;;
50745;SDS011;36711;51.972;21.204;2023-08-24T20:35:58;7.90;;;4.00;;
50745;SDS011;36711;51.972;21.204;2023-08-24T20:39:05;5.00;;;3.80;;
50745;SDS011;36711;51.972;21.204;2023-08-24T20:41:45;8.60;;;4.20;;
50745;SDS011;36711;51.972;21.204;2023-08-24T20:44:35;6.00;;;4.30;;
50745;SDS011;36711;51.972;21.204;2023-08-24T20:47:06;8.20;;;4.40;;
50745;SDS011;36711;51.972;21.204;2023-08-24T20:49:40;5.50;;;4.00;;
50745;SDS011;36711;51.972;21.204;2023-08-24T20:52:12;9.10;;;4.20;;
50745;SDS011;36711;51.972;21.204;2023-08-24T20:54:44;5.10;;;3.50;;
50745;SDS011;36711;51.972;21.204;2023-08-24T20:57:16;8.00;;;3.50;;
50745;SDS011;36711;51.972;21.204;2023-08-24T20:59:54;10.10;;;3.90;;
50745;SDS011;36711;51.972;21.204;2023-08-24T21:02:31;8.30;;;3.90;;
50745;SDS011;36711;51.972;21.204;2023-08-24T21:05:05;7.70;;;4.10;;
50745;SDS011;36711;51.972;21.204;2023-08-24T21:07:41;7.80;;;4.20;;
50745;SDS011;36711;51.972;21.204;2023-08-24T21:10:48;8.70;;;5.00;;
50745;SDS011;36711;51.972;21.204;2023-08-24T21:13:43;13.90;;;5.90;;
50745;SDS011;36711;51.972;21.204;2023-08-24T21:16:20;11.00;;;5.20;;
50745;SDS011;36711;51.972;21.204;2023-08-24T21:19:34;6.80;;;5.10;;
50745;SDS011;36711;51.972;21.204;2023-08-24T21:22:10;8.00;;;4.80;;
50745;SDS011;36711;51.972;21.204;2023-08-24T21:24:54;7.30;;;4.30;;
50745;SDS011;36711;51.972;21.204;2023-08-24T21:27:29;9.00;;;5.10;;
50745;SDS011;36711;51.972;21.204;2023-08-24T21:30:24;7.90;;;5.30;;
50745;SDS011;36711;51.972;21.204;2023-08-24T21:33:04;10.50;;;5.90;;
50745;SDS011;36711;51.972;21.204;2023-08-24T21:35:39;9.80;;;6.50;;
50745;SDS011;36711;51.972;21.204;2023-08-24T21:39:04;8.70;;;6.30;;
50745;SDS011;36711;51.972;21.204;2023-08-24T21:41:49;11.50;;;6.30;;
50745;SDS011;36711;51.972;21.204;2023-08-24T21:44:35;8.30;;;5.80;;
50745;SDS011;36711;51.972;21.204;2023-08-24T21:47:10;7.70;;;5.00;;
50745;SDS011;36711;51.972;21.204;2023-08-24T21:49:41;8.20;;;5.30;;
50745;SDS011;36711;51.972;21.204;2023-08-24T21:52:18;10.70;;;5.80;;
50745;SDS011;36711;51.972;21.204;2023-08-24T21:54:59;14.30;;;6.80;;
50745;SDS011;36711;51.972;21.204;2023-08-24T21:57:46;9.60;;;6.10;;
50745;SDS011;36711;51.972;21.204;2023-08-24T22:00:30;10.70;;;6.60;;
50745;SDS011;36711;51.972;21.204;2023-08-24T22:03:09;10.60;;;6.70;;
50745;SDS011;36711;51.972;21.204;2023-08-24T22:05:42;10.10;;;6.70;;
50745;SDS011;36711;51.972;21.204;2023-08-24T22:08:28;9.20;;;6.20;;
50745;SDS011;36711;51.972;21.204;2023-08-24T22:13:45;8.10;;;5.60;;
50745;SDS011;36711;51.972;21.204;2023-08-24T22:16:30;8.70;;;6.30;;
50745;SDS011;36711;51.972;21.204;2023-08-24T22:19:03;8.70;;;6.00;;
50745;SDS011;36711;51.972;21.204;2023-08-24T22:24:33;9.20;;;6.40;;
50745;SDS011;36711;51.972;21.204;2023-08-24T22:27:03;8.20;;;5.70;;
50745;SDS011;36711;51.972;21.204;2023-08-24T22:29:36;11.40;;;5.30;;